Time;durP1;ratioP1;P1;durP2;ratioP2;P2;SDS_P1;SDS_P2;PMS_P1;PMS_P2;Temp;Humidity;BMP_temperature;BMP_pressure;BME280_temperature;BME280_humidity;BME280_pressure;Samples;Min_cycle;Max_cycle;Signal;HPM_P1;HPM_P2
2022/03/14 00:00:36;;;;;;;24.23;17.55;;;;;;;5.92;54.77;103296.44;1783809;79;21503;-74
2022/03/14 00:03:05;;;;;;;25.77;17.15;;;;;;;5.88;54.95;103294.56;1772805;79;21530;-75
2022/03/14 00:05:32;;;;;;;26.15;17.07;;;;;;;5.86;55.06;103293.63;1720593;82;20995;-75
2022/03/14 00:08:00;;;;;;;21.68;16.45;;;;;;;5.85;55.19;103298.34;1729175;81;21082;-75
2022/03/14 00:10:30;;;;;;;21.90;16.50;;;;;;;5.85;55.16;103298.34;1744718;79;21027;-75
2022/03/14 00:12:58;;;;;;;23.18;16.65;;;;;;;5.87;55.09;103304.86;1741401;80;21827;-74
2022/03/14 00:15:28;;;;;;;24.77;18.25;;;;;;;5.90;55.09;103297.20;1726281;81;21015;-74
2022/03/14 00:17:53;;;;;;;25.02;17.40;;;;;;;5.93;55.09;103304.68;1723691;82;21018;-75
2022/03/14 00:20:20;;;;;;;23.52;16.95;;;;;;;5.94;54.98;103302.55;1711135;81;21066;-75
2022/03/14 00:22:49;;;;;;;24.35;17.45;;;;;;;5.93;54.98;103307.27;1704226;82;21030;-74
2022/03/14 00:25:16;;;;;;;27.40;16.27;;;;;;;5.89;55.13;103308.37;1754575;79;21029;-74
2022/03/14 00:27:42;;;;;;;23.75;17.15;;;;;;;5.84;55.22;103310.78;1781588;79;21050;-74
2022/03/14 00:30:11;;;;;;;25.75;18.60;;;;;;;5.78;55.57;103319.55;1777313;78;21091;-74
2022/03/14 00:32:40;;;;;;;25.05;17.85;;;;;;;5.76;55.68;103321.20;1778710;79;21023;-74
2022/03/14 00:35:08;;;;;;;25.23;18.85;;;;;;;5.75;55.92;103318.13;1778408;79;21066;-74
2022/03/14 00:37:35;;;;;;;25.23;18.15;;;;;;;5.75;55.96;103314.25;1786044;79;21035;-74
2022/03/14 00:40:04;;;;;;;24.70;17.95;;;;;;;5.78;55.66;103320.84;1782567;78;21061;-74
2022/03/14 00:42:30;;;;;;;28.02;17.67;;;;;;;5.80;55.72;103320.50;1798874;78;21081;-73
2022/03/14 00:44:59;;;;;;;30.12;19.90;;;;;;;5.82;55.75;103321.84;1777908;79;21527;-74
2022/03/14 00:47:28;;;;;;;26.05;19.05;;;;;;;5.82;55.63;103322.73;1775734;79;21549;-74
2022/03/14 00:49:55;;;;;;;24.55;18.05;;;;;;;5.84;55.63;103323.70;1776313;79;21045;-74
2022/03/14 00:52:22;;;;;;;26.00;18.85;;;;;;;5.84;55.54;103326.28;1764793;79;21010;-74
2022/03/14 00:54:51;;;;;;;23.05;17.80;;;;;;;5.79;55.56;103323.48;1775022;80;21018;-74
2022/03/14 00:57:18;;;;;;;23.90;17.35;;;;;;;5.73;55.65;103321.06;1773096;79;21034;-74
2022/03/14 00:59:44;;;;;;;23.25;16.30;;;;;;;5.66;55.85;103322.97;1776335;79;21074;-74
2022/03/14 01:02:11;;;;;;;23.47;15.80;;;;;;;5.59;56.03;103325.70;1764987;79;21029;-74
2022/03/14 01:04:37;;;;;;;21.82;16.65;;;;;;;5.55;56.16;103326.81;1776606;79;21011;-74
2022/03/14 01:07:04;;;;;;;22.55;17.20;;;;;;;5.49;56.36;103320.12;1782128;79;21506;-75
2022/03/14 01:09:31;;;;;;;24.57;18.23;;;;;;;5.47;56.45;103323.94;1783941;79;21119;-74
2022/03/14 01:12:00;;;;;;;22.20;17.65;;;;;;;5.48;56.45;103326.12;1783098;79;21082;-74
2022/03/14 01:14:26;;;;;;;26.07;18.32;;;;;;;5.43;56.59;103327.22;1783086;79;21018;-74
2022/03/14 01:16:53;;;;;;;25.10;17.12;;;;;;;5.40;56.74;103333.97;1785844;79;21003;-74
2022/03/14 01:19:21;;;;;;;25.02;17.52;;;;;;;5.37;56.88;103329.56;1766930;79;21082;-74
2022/03/14 01:21:49;;;;;;;20.95;16.77;;;;;;;5.36;57.03;103334.64;1756452;80;21031;-74
2022/03/14 01:24:16;;;;;;;25.85;16.50;;;;;;;5.35;57.13;103334.19;1776301;79;21530;-74
2022/03/14 01:26:44;;;;;;;19.80;15.30;;;;;;;5.35;57.25;103340.64;1770638;80;21520;-74
2022/03/14 01:29:11;;;;;;;22.82;14.68;;;;;;;5.34;57.28;103340.15;1775372;80;21000;-74
2022/03/14 01:31:38;;;;;;;18.48;13.88;;;;;;;5.34;57.19;103345.31;1781681;78;21007;-74
2022/03/14 01:34:05;;;;;;;17.37;12.95;;;;;;;5.34;57.00;103346.60;1782044;79;21043;-74
2022/03/14 01:36:31;;;;;;;18.40;14.23;;;;;;;5.32;56.96;103343.08;1797132;78;21041;-73
2022/03/14 01:38:59;;;;;;;17.48;13.25;;;;;;;5.31;56.88;103347.79;1727975;80;21053;-74
2022/03/14 01:41:27;;;;;;;18.30;13.05;;;;;;;5.30;56.86;103349.88;1753024;80;21034;-74
2022/03/14 01:43:55;;;;;;;21.27;14.47;;;;;;;5.25;56.98;103347.54;1773028;79;21065;-74
2022/03/14 01:46:23;;;;;;;16.75;12.60;;;;;;;5.25;57.07;103353.99;1789377;77;21104;-73
2022/03/14 01:48:51;;;;;;;21.97;15.08;;;;;;;5.26;57.06;103353.16;1786319;79;21038;-74
2022/03/14 01:51:20;;;;;;;18.67;13.13;;;;;;;5.24;57.09;103350.92;1785937;78;21518;-74
2022/03/14 01:53:47;;;;;;;16.48;12.15;;;;;;;5.24;57.05;103354.80;1787204;78;21510;-75
2022/03/14 01:56:13;;;;;;;17.37;13.00;;;;;;;5.22;57.06;103362.89;1768051;79;21053;-74
2022/03/14 01:58:41;;;;;;;18.95;13.58;;;;;;;5.19;57.12;103362.37;1770204;80;21065;-74
2022/03/14 02:01:09;;;;;;;19.37;14.13;;;;;;;5.17;57.15;103367.00;1770569;80;21311;-74
2022/03/14 02:03:36;;;;;;;18.50;12.88;;;;;;;5.14;57.29;103366.45;1777132;79;21038;-74
2022/03/14 02:06:03;;;;;;;16.02;12.95;;;;;;;5.13;57.30;103365.11;1789493;78;21050;-74
2022/03/14 02:08:30;;;;;;;20.90;13.95;;;;;;;5.11;57.32;103368.03;1777100;79;20978;-74
2022/03/14 02:10:58;;;;;;;16.37;12.40;;;;;;;5.10;57.43;103373.99;1769257;80;21026;-74
2022/03/14 02:13:26;;;;;;;18.75;14.30;;;;;;;5.09;57.43;103372.25;1721324;82;20994;-74
2022/03/14 02:15:53;;;;;;;20.25;13.45;;;;;;;5.06;57.42;103374.69;1777656;78;21632;-75
2022/03/14 02:18:20;;;;;;;15.95;12.55;;;;;;;5.02;57.52;103371.10;1775513;79;20982;-74
2022/03/14 02:20:48;;;;;;;16.60;13.30;;;;;;;5.01;57.65;103383.95;1768354;79;20975;-74
2022/03/14 02:23:15;;;;;;;17.65;12.95;;;;;;;4.98;57.71;103378.64;1770770;79;21053;-74
2022/03/14 02:25:53;;;;;;;18.85;13.00;;;;;;;4.94;57.79;103383.69;1760500;80;21047;-74
2022/03/14 02:28:22;;;;;;;18.30;13.10;;;;;;;4.94;57.93;103387.95;1765898;80;22474;-75
2022/03/14 02:30:50;;;;;;;18.42;13.03;;;;;;;4.94;58.09;103379.82;1789720;79;21055;-74
2022/03/14 02:33:19;;;;;;;20.90;13.78;;;;;;;4.98;58.04;103383.80;1779526;79;21063;-75
2022/03/14 02:35:47;;;;;;;16.95;12.95;;;;;;;4.99;58.12;103389.02;1772985;79;21506;-74
2022/03/14 02:38:19;;;;;;;19.50;13.78;;;;;;;5.01;58.04;103391.69;1771855;79;21577;-74
2022/03/14 02:40:47;;;;;;;21.33;14.60;;;;;;;5.00;58.07;103393.38;1713095;82;21067;-74
2022/03/14 02:43:20;;;;;;;20.90;14.98;;;;;;;5.00;58.15;103397.65;1728389;82;21031;-74
2022/03/14 02:45:47;;;;;;;20.40;14.90;;;;;;;4.99;58.13;103401.06;1742576;80;21458;-74
2022/03/14 02:48:16;;;;;;;21.75;15.95;;;;;;;4.97;58.22;103401.41;1735388;81;21545;-74
2022/03/14 02:50:44;;;;;;;21.12;15.60;;;;;;;4.94;58.27;103405.63;1740701;81;21570;-74
2022/03/14 02:53:12;;;;;;;20.72;15.32;;;;;;;4.92;58.35;103408.52;1738429;81;21014;-74
2022/03/14 02:55:39;;;;;;;22.13;15.72;;;;;;;4.90;58.41;103406.27;1732568;80;21043;-74
2022/03/14 02:58:06;;;;;;;22.70;16.70;;;;;;;4.88;58.41;103412.20;1732073;82;21022;-74
2022/03/14 03:00:35;;;;;;;23.98;16.42;;;;;;;4.86;58.30;103415.98;1755457;80;21684;-75
2022/03/14 03:03:04;;;;;;;21.27;16.30;;;;;;;4.83;58.44;103420.14;1774316;79;21019;-74
2022/03/14 03:05:31;;;;;;;21.27;16.40;;;;;;;4.82;58.46;103419.25;1775389;79;21003;-74
2022/03/14 03:08:04;;;;;;;19.62;16.00;;;;;;;4.86;58.36;103415.98;1775840;79;21061;-73
2022/03/14 03:10:33;;;;;;;19.73;16.32;;;;;;;4.91;58.00;103422.64;1761369;79;21016;-74
2022/03/14 03:13:00;;;;;;;21.15;16.02;;;;;;;4.95;57.66;103424.14;1773809;78;21066;-74
2022/03/14 03:15:27;;;;;;;18.45;15.40;;;;;;;4.98;57.29;103425.09;1758770;80;21132;-74
2022/03/14 03:17:53;;;;;;;19.25;15.53;;;;;;;4.99;56.93;103429.45;1788436;79;21051;-74
2022/03/14 03:20:20;;;;;;;19.07;14.78;;;;;;;4.95;56.86;103418.98;1769913;79;21511;-75
2022/03/14 03:22:47;;;;;;;20.68;15.23;;;;;;;4.92;56.92;103423.99;1775585;78;21032;-74
2022/03/14 03:25:13;;;;;;;21.77;15.70;;;;;;;4.86;57.18;103426.30;1771299;80;20990;-75
2022/03/14 03:27:41;;;;;;;17.35;14.18;;;;;;;4.82;57.39;103432.15;1777656;79;21025;-74
2022/03/14 03:30:11;;;;;;;19.15;14.40;;;;;;;4.80;57.54;103430.34;1780800;79;21062;-74
2022/03/14 03:32:38;;;;;;;18.95;14.60;;;;;;;4.79;57.62;103421.71;1774807;79;21014;-73
2022/03/14 03:35:05;;;;;;;17.45;13.85;;;;;;;4.81;57.63;103425.24;1799947;78;21043;-74
2022/03/14 03:37:34;;;;;;;15.08;13.15;;;;;;;4.82;57.61;103423.12;1783784;79;21555;-74
2022/03/14 03:40:03;;;;;;;18.98;14.33;;;;;;;4.82;57.64;103430.86;1776541;79;21114;-73
2022/03/14 03:42:30;;;;;;;20.62;14.23;;;;;;;4.81;57.66;103432.98;1800101;78;21582;-74
2022/03/14 03:44:56;;;;;;;19.67;14.38;;;;;;;4.78;57.68;103430.25;1778438;79;21058;-75
2022/03/14 03:47:24;;;;;;;20.70;14.80;;;;;;;4.77;57.77;103434.06;1759102;80;21039;-73
2022/03/14 03:49:51;;;;;;;17.87;13.62;;;;;;;4.80;57.77;103437.64;1771589;80;20964;-73
2022/03/14 03:52:17;;;;;;;16.67;13.48;;;;;;;4.81;57.67;103442.01;1776593;80;21023;-74
2022/03/14 03:54:43;;;;;;;17.23;12.73;;;;;;;4.80;57.63;103446.67;1769881;80;21017;-74
2022/03/14 03:57:10;;;;;;;16.77;12.85;;;;;;;4.79;57.64;103445.33;1768057;79;20983;-74
2022/03/14 03:59:36;;;;;;;15.95;12.07;;;;;;;4.76;57.70;103449.94;1783600;78;21085;-74
2022/03/14 04:02:04;;;;;;;15.72;12.65;;;;;;;4.74;57.80;103453.28;1775929;79;21519;-74
2022/03/14 04:04:32;;;;;;;15.75;12.15;;;;;;;4.75;57.84;103464.95;1771225;80;21047;-75
2022/03/14 04:07:00;;;;;;;16.42;12.15;;;;;;;4.75;57.75;103455.92;1713849;82;21062;-74
2022/03/14 04:09:27;;;;;;;14.40;12.60;;;;;;;4.75;57.68;103457.61;1727181;82;21073;-74
2022/03/14 04:11:53;;;;;;;19.20;12.90;;;;;;;4.73;57.61;103466.98;1724807;82;21681;-74
2022/03/14 04:14:21;;;;;;;18.23;12.78;;;;;;;4.71;57.58;103469.90;1722248;81;21133;-74
2022/03/14 04:16:48;;;;;;;15.95;12.88;;;;;;;4.66;57.56;103471.38;1718992;81;21067;-74
2022/03/14 04:19:16;;;;;;;16.55;12.93;;;;;;;4.60;57.80;103470.70;1721593;82;20992;-74
2022/03/14 04:21:49;;;;;;;18.82;13.03;;;;;;;4.58;57.87;103467.17;1774492;78;21012;-74
2022/03/14 04:24:14;;;;;;;17.87;13.58;;;;;;;4.59;58.01;103471.53;1785393;78;21067;-74
2022/03/14 04:26:40;;;;;;;16.95;13.18;;;;;;;4.63;58.04;103476.41;1771092;79;21046;-74
2022/03/14 04:29:07;;;;;;;17.85;12.98;;;;;;;4.68;57.91;103477.08;1780200;80;21512;-74
2022/03/14 04:31:33;;;;;;;15.65;13.95;;;;;;;4.70;57.84;103481.91;1746091;80;21050;-74
2022/03/14 04:34:00;;;;;;;14.95;12.63;;;;;;;4.71;57.87;103484.08;1768228;80;21037;-74
2022/03/14 04:36:27;;;;;;;16.02;12.60;;;;;;;4.70;57.96;103485.77;1772229;79;21496;-73
2022/03/14 04:38:53;;;;;;;15.03;12.07;;;;;;;4.69;58.05;103491.76;1770441;79;21057;-74
2022/03/14 04:41:20;;;;;;;17.37;13.28;;;;;;;4.68;58.22;103488.69;1776415;80;20991;-74
2022/03/14 04:43:47;;;;;;;18.62;13.18;;;;;;;4.69;58.34;103492.16;1766604;79;20976;-74
2022/03/14 04:46:15;;;;;;;15.72;13.08;;;;;;;4.72;58.32;103498.33;1771814;80;21051;-74
2022/03/14 04:48:41;;;;;;;16.62;12.80;;;;;;;4.76;58.26;103501.52;1784414;77;21495;-74
2022/03/14 04:51:08;;;;;;;16.37;12.70;;;;;;;4.77;58.22;103504.59;1776511;80;20991;-74
2022/03/14 04:53:37;;;;;;;17.23;13.20;;;;;;;4.79;58.12;103504.26;1781793;79;21069;-74
2022/03/14 04:56:04;;;;;;;15.28;12.28;;;;;;;4.80;58.22;103506.01;1766944;79;21530;-75
2022/03/14 04:58:32;;;;;;;15.28;12.30;;;;;;;4.84;58.12;103513.06;1786163;79;21046;-74
2022/03/14 05:00:59;;;;;;;16.48;13.40;;;;;;;4.88;58.02;103514.11;1790329;79;21026;-74
2022/03/14 05:03:28;;;;;;;17.17;13.03;;;;;;;4.89;57.89;103516.75;1791835;79;20991;-74
2022/03/14 05:05:55;;;;;;;17.52;13.05;;;;;;;4.89;57.89;103523.60;1773127;79;20975;-74
2022/03/14 05:08:22;;;;;;;14.10;12.43;;;;;;;4.87;57.78;103522.25;1781785;79;21522;-73
2022/03/14 05:10:50;;;;;;;18.67;12.43;;;;;;;4.85;57.87;103522.59;1790156;78;21014;-73
2022/03/14 05:13:18;;;;;;;15.25;12.28;;;;;;;4.85;57.81;103525.17;1782941;79;21066;-74
2022/03/14 05:15:44;;;;;;;15.05;12.65;;;;;;;4.87;57.78;103528.70;1787556;79;21042;-73
2022/03/14 05:18:11;;;;;;;15.15;12.58;;;;;;;4.91;57.77;103538.34;1772823;79;21090;-74
2022/03/14 05:20:40;;;;;;;15.58;12.23;;;;;;;4.91;57.71;103534.87;1779001;79;21057;-74
2022/03/14 05:23:07;;;;;;;17.02;13.75;;;;;;;4.89;57.80;103537.39;1766558;80;21015;-73
2022/03/14 05:25:34;;;;;;;17.50;14.35;;;;;;;4.92;57.94;103541.81;1777962;79;21037;-74
2022/03/14 05:28:01;;;;;;;18.25;14.55;;;;;;;4.95;58.01;103545.41;1781759;78;21500;-74
2022/03/14 05:30:28;;;;;;;17.57;14.40;;;;;;;4.97;57.97;103553.64;1771483;79;21023;-73
2022/03/14 05:32:54;;;;;;;18.25;13.10;;;;;;;4.98;57.92;103556.69;1787961;79;21021;-74
2022/03/14 05:35:20;;;;;;;17.23;14.07;;;;;;;4.97;57.95;103552.35;1782679;79;21541;-74
2022/03/14 05:37:47;;;;;;;16.97;13.95;;;;;;;4.97;57.88;103555.79;1790306;79;20991;-73
2022/03/14 05:40:15;;;;;;;18.67;14.20;;;;;;;4.97;57.88;103557.52;1754884;79;21064;-74
2022/03/14 05:42:45;;;;;;;19.40;14.10;;;;;;;4.94;58.04;103556.56;1781925;79;21046;-74
2022/03/14 05:45:13;;;;;;;17.35;12.90;;;;;;;4.97;58.09;103563.53;1777041;78;21517;-74
2022/03/14 05:47:41;;;;;;;16.65;13.78;;;;;;;4.95;57.71;103558.31;1775750;79;21076;-74
2022/03/14 05:50:09;;;;;;;16.97;14.23;;;;;;;4.92;57.83;103559.88;1781844;79;21096;-75
2022/03/14 05:52:36;;;;;;;17.65;14.18;;;;;;;4.92;58.02;103564.61;1778828;79;21043;-74
2022/03/14 05:55:05;;;;;;;18.32;13.25;;;;;;;4.98;57.95;103563.13;1792866;77;21061;-74
2022/03/14 05:57:33;;;;;;;21.42;13.75;;;;;;;5.02;57.79;103566.33;1788911;79;21109;-74
2022/03/14 05:59:59;;;;;;;16.80;13.95;;;;;;;5.06;57.57;103566.94;1774705;78;21022;-74
2022/03/14 06:02:26;;;;;;;17.70;13.25;;;;;;;5.09;57.47;103570.97;1768335;80;20982;-74
2022/03/14 06:04:54;;;;;;;18.37;14.18;;;;;;;5.10;57.50;103574.90;1784643;79;21463;-74
2022/03/14 06:07:21;;;;;;;21.68;14.18;;;;;;;5.14;57.43;103573.33;1770149;80;21010;-75
2022/03/14 06:09:49;;;;;;;15.40;13.13;;;;;;;5.21;57.82;103577.97;1761895;79;21006;-75
2022/03/14 06:12:27;;;;;;;22.05;15.50;;;;;;;5.41;57.89;103586.18;1778200;79;21046;-74
2022/03/14 06:14:57;;;;;;;20.30;14.45;;;;;;;5.61;57.57;103584.05;1789153;79;21046;-74
2022/03/14 06:17:25;;;;;;;19.48;14.95;;;;;;;5.82;57.08;103586.27;1746045;81;21577;-74
2022/03/14 06:19:53;;;;;;;18.75;14.65;;;;;;;5.98;56.74;103595.17;1737505;82;21082;-74
2022/03/14 06:22:22;;;;;;;18.32;14.53;;;;;;;6.15;56.39;103590.30;1748800;82;21031;-74
2022/03/14 06:24:49;;;;;;;17.57;13.88;;;;;;;6.34;56.11;103592.83;1735555;82;21072;-74
2022/03/14 06:27:16;;;;;;;18.25;13.78;;;;;;;6.51;55.61;103591.78;1746307;82;21034;-74
2022/03/14 06:29:43;;;;;;;16.73;13.93;;;;;;;6.69;55.22;103597.22;1743323;82;21574;-74
2022/03/14 06:32:10;;;;;;;19.27;13.88;;;;;;;6.85;54.92;103599.16;1734849;82;20989;-74
2022/03/14 06:34:38;;;;;;;17.80;14.13;;;;;;;7.10;54.56;103594.10;1701836;81;21036;-75
2022/03/14 06:37:07;;;;;;;17.62;14.00;;;;;;;7.43;53.58;103598.34;1701375;83;21000;-74
2022/03/14 06:39:35;;;;;;;17.12;13.78;;;;;;;7.56;52.96;103591.48;1698608;83;21058;-75
2022/03/14 06:44:39;;;;;;;16.02;13.30;;;;;;;7.72;52.27;103595.08;1689313;84;21018;-74
2022/03/14 06:47:12;;;;;;;18.90;13.70;;;;;;;7.77;51.89;103602.58;1668027;84;21084;-75
2022/03/14 06:49:42;;;;;;;15.20;12.80;;;;;;;7.86;51.97;103602.91;1652492;85;21166;-75
2022/03/14 06:52:09;;;;;;;19.37;13.40;;;;;;;8.03;51.63;103604.38;1672612;84;21085;-76
2022/03/14 06:54:37;;;;;;;19.52;13.25;;;;;;;8.17;51.23;103605.71;1656241;84;21108;-75
2022/03/14 06:57:04;;;;;;;16.02;13.22;;;;;;;8.34;51.17;103613.20;1676466;84;21078;-77
2022/03/14 06:59:30;;;;;;;16.12;13.25;;;;;;;8.48;50.70;103611.52;1669778;84;21650;-76
2022/03/14 07:01:58;;;;;;;16.70;13.38;;;;;;;8.68;50.47;103614.32;1656952;84;21070;-74
2022/03/14 07:04:25;;;;;;;15.28;13.48;;;;;;;8.89;50.03;103616.70;1680201;84;21033;-75
2022/03/14 07:06:54;;;;;;;16.67;12.88;;;;;;;9.06;49.59;103615.50;1685335;84;21112;-75
2022/03/14 07:09:20;;;;;;;20.10;13.72;;;;;;;9.20;49.03;103619.37;1653455;84;21064;-76
2022/03/14 07:11:51;;;;;;;15.58;12.85;;;;;;;9.20;48.68;103615.48;1672002;84;21038;-75
2022/03/14 07:14:19;;;;;;;16.95;13.80;;;;;;;9.17;48.81;103619.27;1659046;84;21557;-76
2022/03/14 07:16:50;;;;;;;16.50;12.53;;;;;;;9.23;48.57;103625.98;1647551;85;21132;-75
2022/03/14 07:19:18;;;;;;;;;;;;;;;9.28;48.39;103623.08;1650464;86;21570;-76
2022/03/14 07:21:44;;;;;;;16.42;12.23;;;;;;;9.30;48.28;103614.91;1638997;86;20108;-75
2022/03/14 07:24:10;;;;;;;16.52;11.90;;;;;;;9.29;48.25;103615.76;1639069;86;21049;-75
2022/03/14 07:26:37;;;;;;;15.48;11.65;;;;;;;9.27;48.06;103617.44;1641532;85;21049;-75
2022/03/14 07:29:06;;;;;;;18.40;12.23;;;;;;;9.18;48.08;103618.45;1647524;85;21058;-75
2022/03/14 07:31:33;;;;;;;14.85;12.40;;;;;;;9.05;47.96;103620.22;1652768;86;21042;-75
2022/03/14 07:34:00;;;;;;;15.70;12.30;;;;;;;8.92;48.33;103631.94;1656691;82;21653;-76
2022/03/14 07:36:26;;;;;;;17.15;13.22;;;;;;;8.81;48.64;103628.56;1691855;83;21092;-75
2022/03/14 07:38:56;;;;;;;14.63;11.70;;;;;;;8.76;49.01;103624.93;1731696;82;21016;-76
2022/03/14 07:41:22;;;;;;;14.55;12.28;;;;;;;8.75;49.25;103624.08;1749339;80;21090;-75
2022/03/14 07:43:49;;;;;;;15.63;11.93;;;;;;;8.70;48.94;103632.13;1749718;80;21048;-75
2022/03/14 07:46:15;;;;;;;15.35;13.50;;;;;;;8.59;48.92;103633.92;1752372;79;21013;-75
2022/03/14 07:48:42;;;;;;;18.45;13.22;;;;;;;8.42;49.42;103635.08;1768508;79;21482;-74
2022/03/14 07:51:10;;;;;;;17.02;13.03;;;;;;;8.25;49.73;103633.23;1756953;80;21498;-75
2022/03/14 07:53:38;;;;;;;18.42;13.08;;;;;;;8.13;50.14;103631.48;1753406;80;21039;-75
2022/03/14 07:56:04;;;;;;;18.23;12.25;;;;;;;8.06;50.44;103632.98;1754783;80;21054;-75
2022/03/14 07:58:32;;;;;;;14.38;12.37;;;;;;;8.06;50.75;103638.17;1789006;79;21057;-74
2022/03/14 08:01:00;;;;;;;14.85;12.30;;;;;;;8.10;50.92;103635.26;1774336;79;21035;-75
2022/03/14 08:03:27;;;;;;;14.93;12.28;;;;;;;8.14;50.85;103639.31;1767336;79;21006;-74
2022/03/14 08:05:58;;;;;;;14.30;12.10;;;;;;;8.20;50.71;103638.66;1769070;79;21002;-74
2022/03/14 08:08:23;;;;;;;15.80;11.95;;;;;;;8.20;50.41;103647.30;1765132;80;21077;-74
2022/03/14 08:10:51;;;;;;;13.60;11.33;;;;;;;8.16;50.32;103640.25;1778902;79;21547;-75
2022/03/14 08:13:20;;;;;;;14.15;11.10;;;;;;;8.13;50.24;103642.75;1769810;80;21543;-75
2022/03/14 08:15:48;;;;;;;14.45;10.55;;;;;;;8.11;50.35;103643.12;1770246;79;21110;-74
2022/03/14 08:18:17;;;;;;;13.10;10.58;;;;;;;8.14;50.38;103641.91;1769923;79;21043;-73
2022/03/14 08:20:44;;;;;;;15.65;11.00;;;;;;;8.18;50.48;103642.91;1774855;79;21026;-75
2022/03/14 08:23:16;;;;;;;13.60;10.35;;;;;;;8.20;50.21;103639.52;1756115;80;21097;-74
2022/03/14 08:25:42;;;;;;;13.40;10.08;;;;;;;8.24;50.60;103643.98;1738019;80;21526;-75
2022/03/14 08:28:09;;;;;;;14.20;11.00;;;;;;;8.37;50.70;103643.12;1776171;79;21101;-75
2022/03/14 08:30:36;;;;;;;12.73;10.32;;;;;;;8.49;50.24;103644.84;1774002;80;21026;-75
2022/03/14 08:33:02;;;;;;;12.37;9.15;;;;;;;8.56;49.67;103647.67;1764895;80;21546;-75
2022/03/14 08:35:29;;;;;;;13.18;10.08;;;;;;;8.64;49.26;103641.42;1770343;79;21039;-75
2022/03/14 08:37:56;;;;;;;11.80;9.48;;;;;;;8.71;49.16;103640.39;1773005;78;21155;-74
2022/03/14 08:40:25;;;;;;;14.98;11.50;;;;;;;8.77;49.36;103644.88;1765199;78;21025;-75
2022/03/14 08:42:53;;;;;;;12.58;9.63;;;;;;;8.80;48.93;103644.95;1780367;79;21027;-75
2022/03/14 08:45:20;;;;;;;12.43;9.73;;;;;;;8.81;48.82;103638.95;1761292;79;21013;-76
2022/03/14 08:47:47;;;;;;;13.62;8.80;;;;;;;8.81;48.36;103644.14;1767960;79;21120;-76
2022/03/14 08:50:14;;;;;;;9.43;7.53;;;;;;;8.84;48.46;103644.25;1759649;80;21039;-76
2022/03/14 08:52:41;;;;;;;4.40;4.00;;;;;;;8.88;48.34;103643.52;1782481;79;21545;-75
2022/03/14 08:55:08;;;;;;;7.55;3.35;;;;;;;8.93;45.95;103636.73;1773636;80;20985;-76
2022/03/14 08:57:34;;;;;;;8.00;3.47;;;;;;;9.02;43.88;103639.62;1786546;79;21050;-76
2022/03/14 09:00:01;;;;;;;5.17;2.90;;;;;;;9.10;42.77;103635.94;1782620;78;21045;-76
2022/03/14 09:02:28;;;;;;;4.28;2.90;;;;;;;9.18;41.59;103635.34;1801703;79;21019;-75
2022/03/14 09:04:54;;;;;;;5.00;3.30;;;;;;;9.27;40.39;103639.93;1782567;79;21162;-76
2022/03/14 09:07:28;;;;;;;4.53;2.90;;;;;;;9.34;39.83;103633.64;1774471;80;20992;-76
2022/03/14 09:10:11;;;;;;;4.55;3.08;;;;;;;9.39;39.75;103632.08;1788159;78;21019;-75
2022/03/14 09:12:42;;;;;;;4.15;3.12;;;;;;;9.45;39.17;103633.95;1757935;80;21062;-76
2022/03/14 09:15:10;;;;;;;4.70;3.30;;;;;;;9.48;39.10;103638.81;1743230;80;21064;-76
2022/03/14 09:17:49;;;;;;;4.42;3.40;;;;;;;9.51;38.99;103638.91;1747169;80;21073;-75
2022/03/14 09:20:17;;;;;;;4.55;3.30;;;;;;;9.54;38.83;103633.78;1685430;83;21090;-76
2022/03/14 09:22:47;;;;;;;4.95;3.47;;;;;;;9.58;39.02;103629.13;1697260;83;21042;-76
2022/03/14 09:25:14;;;;;;;5.22;4.45;;;;;;;9.61;39.06;103630.53;1689253;83;21030;-76
2022/03/14 09:27:44;;;;;;;6.85;4.28;;;;;;;9.65;39.53;103628.48;1703167;82;21537;-75
2022/03/14 09:30:12;;;;;;;5.58;3.95;;;;;;;9.69;40.12;103635.52;1694258;82;21046;-76
2022/03/14 09:32:39;;;;;;;7.85;4.20;;;;;;;9.71;39.97;103629.94;1684037;82;22800;-76
2022/03/14 09:35:08;;;;;;;6.58;4.05;;;;;;;9.74;39.94;103631.34;1688394;83;21068;-75
2022/03/14 09:37:39;;;;;;;4.53;3.87;;;;;;;9.76;39.56;103628.36;1679803;83;21057;-76
2022/03/14 09:40:10;;;;;;;4.75;3.95;;;;;;;9.77;39.59;103627.51;1696291;83;21050;-74
2022/03/14 09:42:41;;;;;;;5.05;4.22;;;;;;;9.80;39.97;103629.31;1702815;83;21053;-76
2022/03/14 09:45:09;;;;;;;7.50;3.90;;;;;;;9.81;40.33;103628.05;1703340;83;21002;-76
2022/03/14 09:47:39;;;;;;;5.20;4.28;;;;;;;9.81;40.72;103622.84;1679738;83;21080;-76
2022/03/14 09:50:08;;;;;;;7.53;4.85;;;;;;;9.81;41.10;103626.75;1691878;82;21089;-77
2022/03/14 09:52:38;;;;;;;5.25;3.77;;;;;;;9.79;41.09;103621.03;1692925;84;21045;-76
2022/03/14 09:55:07;;;;;;;5.22;3.60;;;;;;;9.76;40.89;103618.38;1685864;83;21045;-76
2022/03/14 09:57:35;;;;;;;5.17;3.65;;;;;;;9.71;40.86;103619.95;1681872;84;21172;-75
2022/03/14 10:00:09;;;;;;;6.80;4.30;;;;;;;9.67;41.09;103619.00;1684987;84;21113;-76
2022/03/14 10:02:39;;;;;;;5.55;3.42;;;;;;;9.64;41.16;103616.30;1685356;84;21065;-76
2022/03/14 10:05:13;;;;;;;6.97;3.90;;;;;;;9.60;41.26;103622.25;1684730;83;21601;-75
2022/03/14 10:07:40;;;;;;;5.60;3.40;;;;;;;9.56;41.18;103610.02;1645426;86;21109;-76
2022/03/14 10:10:09;;;;;;;5.03;3.20;;;;;;;9.52;40.90;103615.97;1637472;86;21066;-76
2022/03/14 10:12:38;;;;;;;4.83;3.70;;;;;;;9.51;40.81;103612.92;1644212;86;21030;-75
2022/03/14 10:15:06;;;;;;;6.72;3.45;;;;;;;9.50;40.81;103609.84;1630714;85;21094;-76
2022/03/14 10:17:35;;;;;;;4.12;3.40;;;;;;;9.50;40.90;103608.98;1646055;86;21061;-77
2022/03/14 10:20:06;;;;;;;4.83;3.85;;;;;;;9.52;41.05;103609.91;1630348;86;21074;-74
2022/03/14 10:22:36;;;;;;;3.92;3.30;;;;;;;9.56;41.17;103606.56;1643315;85;21077;-76
2022/03/14 10:25:10;;;;;;;5.45;3.10;;;;;;;9.61;41.20;103603.23;1621338;86;21063;-76
2022/03/14 10:27:40;;;;;;;4.00;2.60;;;;;;;9.67;41.11;103607.30;1596197;89;21071;-75
2022/03/14 10:30:23;;;;;;;3.30;2.52;;;;;;;9.74;40.36;103605.34;1593308;88;21518;-76
2022/03/14 10:32:49;;;;;;;3.87;2.83;;;;;;;9.80;39.41;103600.30;1591572;89;21131;-76
2022/03/14 10:35:20;;;;;;;4.45;3.00;;;;;;;9.85;39.33;103600.39;1596739;88;21119;-75
2022/03/14 10:37:58;;;;;;;5.17;2.92;;;;;;;9.91;39.25;103602.30;1595335;90;21130;-75
2022/03/14 10:40:41;;;;;;;4.53;3.58;;;;;;;9.97;39.53;103601.16;1593408;90;21610;-76
2022/03/14 10:43:27;;;;;;;4.50;3.08;;;;;;;10.02;39.18;103600.83;1559730;91;21044;-76
2022/03/14 10:45:55;;;;;;;4.25;3.08;;;;;;;10.07;38.65;103596.64;1563853;91;21067;-76
2022/03/14 10:48:45;;;;;;;4.30;2.90;;;;;;;10.11;38.88;103595.91;1563019;92;21123;-75
2022/03/14 10:51:18;;;;;;;4.92;3.17;;;;;;;10.14;39.20;103591.66;1581119;90;21068;-75
2022/03/14 10:53:45;;;;;;;;;;;;;;;10.18;38.60;103592.63;1581452;90;21113;-76
2022/03/14 10:56:12;;;;;;;4.42;3.33;;;;;;;10.22;38.74;103590.56;1575462;90;20108;-75
2022/03/14 10:58:39;;;;;;;7.47;3.40;;;;;;;10.22;38.87;103593.17;1583127;90;21529;-76
2022/03/14 11:01:08;;;;;;;6.10;3.05;;;;;;;10.23;38.61;103585.39;1570002;90;21097;-75
2022/03/14 11:03:39;;;;;;;7.85;3.50;;;;;;;10.25;38.70;103586.72;1530548;93;21611;-76
2022/03/14 11:06:14;;;;;;;4.10;3.30;;;;;;;10.25;38.81;103587.61;1571179;89;21040;-75
2022/03/14 11:08:44;;;;;;;4.55;3.65;;;;;;;10.27;38.88;103582.43;1574007;90;21060;-75
2022/03/14 11:11:17;;;;;;;4.67;3.15;;;;;;;10.26;38.61;103575.48;1544041;91;21060;-76
2022/03/14 11:13:47;;;;;;;4.50;3.52;;;;;;;10.26;38.66;103575.48;1564185;89;21134;-76
2022/03/14 11:16:25;;;;;;;5.40;3.70;;;;;;;10.25;38.93;103574.59;1541830;92;21685;-76
2022/03/14 11:18:52;;;;;;;4.75;3.50;;;;;;;10.25;38.72;103569.80;1553725;91;21093;-75
2022/03/14 11:21:24;;;;;;;4.53;3.00;;;;;;;10.24;38.58;103573.27;1524562;92;21112;-75
2022/03/14 11:23:54;;;;;;;5.65;3.55;;;;;;;10.21;38.68;103573.17;1559578;89;21126;-75
2022/03/14 11:26:25;;;;;;;4.92;3.60;;;;;;;10.20;38.55;103574.03;1616554;86;21082;-75
2022/03/14 11:28:55;;;;;;;5.60;3.45;;;;;;;10.17;38.60;103576.55;1661519;84;21047;-75